createdAt,value
2023-05-05T04:51:04.793Z,30.53
2023-05-05T04:53:31.524Z,30.61
2023-05-05T04:56:00.176Z,30.73
2023-05-05T04:58:26.831Z,30.73
2023-05-05T05:00:53.196Z,30.72
2023-05-05T05:03:19.645Z,30.74
2023-05-05T05:05:46.156Z,30.71
2023-05-05T05:08:15.515Z,30.76
2023-05-05T05:10:47.676Z,30.67
2023-05-05T05:13:23.802Z,30.91
2023-05-05T05:15:51.074Z,30.83
2023-05-05T05:18:18.995Z,30.89
2023-05-05T05:20:46.751Z,30.75
2023-05-05T05:23:13.928Z,30.85
2023-05-05T05:25:41.429Z,30.74
2023-05-05T05:28:10.732Z,30.81
2023-05-05T05:30:38.345Z,30.94
2023-05-05T05:33:05.479Z,30.84
2023-05-05T05:35:33.410Z,30.96
2023-05-05T05:38:00.971Z,30.85
2023-05-05T05:40:28.001Z,30.92
2023-05-05T05:42:55.090Z,31.03
2023-05-05T05:45:22.249Z,31.07
2023-05-05T05:47:49.661Z,31.03
2023-05-05T05:50:19.554Z,31.18
2023-05-05T05:53:18.402Z,31.12
2023-05-05T05:55:49.222Z,31.15
2023-05-05T05:58:17.451Z,31.34
2023-05-05T06:00:46.657Z,31.33
2023-05-05T06:34:19.732Z,32.07
2023-05-05T06:37:33.957Z,32.17
2023-05-05T06:47:27.763Z,32.91
2023-05-05T06:58:55.522Z,33.07
2023-05-05T07:01:39.835Z,33.17
2023-05-05T07:04:34.338Z,33.32
2023-05-05T07:07:05.508Z,33.43
2023-05-05T07:09:32.837Z,33.49
2023-05-05T07:12:11.027Z,33.65
2023-05-05T07:14:55.011Z,33.83
2023-05-05T07:20:28.344Z,33.94
2023-05-05T07:24:01.434Z,34.03
2023-05-05T07:29:18.139Z,34.15
2023-05-05T07:31:57.648Z,34.23
2023-05-05T07:34:24.814Z,34.27
2023-05-05T07:36:56.657Z,34.25
2023-05-05T07:39:30.222Z,34.08
2023-05-05T07:41:57.302Z,34.00
2023-05-05T07:44:24.556Z,34.16
2023-05-05T07:47:15.729Z,34.25
2023-05-05T07:49:42.791Z,34.22
2023-05-05T07:59:15.812Z,34.13
2023-05-05T08:01:55.205Z,34.10
2023-05-05T08:04:22.360Z,34.29
2023-05-05T08:07:54.931Z,34.31
2023-05-05T08:10:48.152Z,34.23
2023-05-05T08:16:57.531Z,34.52
2023-05-05T08:19:32.931Z,34.58
2023-05-05T08:22:01.564Z,34.49
2023-05-05T08:24:28.848Z,34.55
2023-05-05T08:26:56.939Z,34.42
2023-05-05T08:29:41.468Z,34.69
2023-05-05T08:32:19.145Z,34.82
2023-05-05T08:34:48.897Z,34.73
2023-05-05T08:37:19.176Z,34.71
2023-05-05T08:39:46.338Z,34.93
2023-05-05T08:42:29.070Z,34.83
2023-05-05T08:45:04.370Z,34.96
2023-05-05T08:47:32.516Z,35.15
2023-05-05T08:50:01.673Z,35.23
2023-05-05T08:52:35.656Z,35.38
2023-05-05T08:55:26.117Z,35.49
2023-05-05T08:57:58.749Z,35.44
2023-05-05T09:00:27.469Z,35.19
2023-05-05T09:03:05.721Z,35.43
2023-05-05T09:05:38.938Z,35.52
2023-05-05T09:08:14.328Z,35.48
2023-05-05T09:10:44.541Z,35.57
2023-05-05T09:13:25.007Z,35.73
2023-05-05T09:15:52.123Z,35.78
2023-05-05T09:18:20.891Z,35.99
2023-05-05T09:20:48.265Z,36.01
2023-05-05T09:23:23.030Z,35.94
2023-05-05T09:26:08.392Z,36.16
2023-05-05T09:28:38.196Z,36.20
2023-05-05T09:31:17.465Z,36.28
2023-05-05T09:33:49.561Z,36.36
2023-05-05T09:36:16.801Z,36.43
2023-05-05T09:39:04.727Z,36.50
2023-05-05T09:41:46.006Z,36.61
2023-05-05T09:44:16.935Z,36.82
2023-05-05T09:47:00.504Z,37.05
2023-05-05T09:49:27.906Z,37.31
2023-05-05T09:52:08.154Z,37.56
2023-05-05T09:55:14.088Z,37.82
2023-05-05T09:57:52.340Z,37.98
2023-05-05T10:00:23.503Z,38.33
2023-05-05T10:03:07.811Z,38.51
2023-05-05T10:05:57.435Z,38.84
2023-05-05T10:08:37.120Z,39.23
2023-05-05T10:11:09.197Z,39.61
2023-05-05T10:13:42.557Z,39.79
2023-05-05T10:16:21.517Z,40.12
2023-05-05T10:18:51.162Z,40.14
2023-05-05T10:21:35.651Z,40.42
2023-05-05T10:24:33.689Z,40.71
2023-05-05T10:27:30.916Z,40.91
2023-05-05T10:30:16.229Z,41.40
2023-05-05T10:33:14.034Z,41.41
2023-05-05T10:36:15.763Z,41.59
2023-05-05T10:41:48.697Z,41.94
2023-05-05T10:44:16.899Z,42.20
2023-05-05T10:46:50.277Z,42.42
2023-05-05T10:49:43.161Z,42.57
2023-05-05T10:52:23.373Z,42.56
2023-05-05T10:55:15.740Z,42.73
2023-05-05T10:57:48.614Z,43.01
2023-05-05T11:00:40.406Z,43.18
2023-05-05T11:03:16.888Z,43.32
2023-05-05T11:06:06.404Z,43.47
2023-05-05T11:08:44.313Z,43.38
2023-05-05T11:11:12.604Z,43.42
2023-05-05T11:13:42.800Z,43.49
2023-05-05T11:16:52.011Z,43.54
2023-05-05T11:19:44.062Z,43.71
2023-05-05T11:22:16.827Z,43.71
2023-05-05T11:24:57.253Z,43.84
2023-05-05T11:28:05.131Z,44.00
2023-05-05T11:30:33.657Z,44.25
2023-05-05T11:33:37.890Z,44.28
2023-05-05T11:36:10.506Z,44.24
2023-05-05T11:39:11.985Z,44.07
2023-05-05T11:41:53.390Z,44.21
2023-05-05T11:44:32.394Z,44.28
2023-05-05T11:47:07.012Z,44.35
2023-05-05T11:49:38.215Z,44.37
2023-05-05T11:52:10.671Z,44.43
2023-05-05T11:54:49.073Z,44.35
2023-05-05T11:57:27.544Z,44.25
2023-05-05T12:00:11.206Z,44.29
2023-05-05T12:02:39.303Z,44.12
2023-05-05T12:05:07.217Z,44.21
2023-05-05T12:07:34.423Z,44.08
2023-05-05T12:10:07.999Z,44.00
2023-05-05T12:12:44.383Z,43.86
2023-05-05T12:15:13.526Z,43.73
2023-05-05T12:17:46.316Z,43.63
2023-05-05T12:20:13.956Z,43.82
2023-05-05T12:22:42.591Z,43.99
2023-05-05T12:25:10.352Z,44.08
2023-05-05T12:27:39.213Z,43.94
2023-05-05T12:30:19.057Z,43.69
2023-05-05T12:32:46.853Z,43.90
2023-05-05T12:35:14.670Z,43.89
2023-05-05T12:37:48.153Z,43.87
2023-05-05T12:40:47.877Z,43.90
2023-05-05T12:43:33.678Z,43.86
2023-05-05T12:46:18.022Z,44.06
2023-05-05T12:48:47.971Z,44.30
2023-05-05T12:51:23.028Z,44.48
2023-05-05T12:54:05.953Z,44.52
2023-05-05T12:56:38.100Z,44.46
2023-05-05T12:59:09.834Z,44.49
2023-05-05T13:01:48.163Z,44.43
2023-05-05T13:04:15.674Z,44.25
2023-05-05T13:06:46.837Z,43.94
2023-05-05T13:09:30.284Z,43.71
2023-05-05T13:12:00.142Z,43.58
2023-05-05T13:14:27.306Z,43.56
2023-05-05T13:16:54.818Z,43.49
2023-05-05T13:19:25.095Z,43.50
2023-05-05T13:21:53.494Z,43.37
2023-05-05T13:24:28.642Z,43.54
2023-05-05T13:26:58.634Z,43.53
2023-05-05T13:29:30.460Z,43.30
2023-05-05T13:31:59.205Z,43.31
2023-05-05T13:34:26.463Z,43.16
2023-05-05T13:36:53.667Z,42.99
2023-05-05T13:39:20.854Z,42.80
2023-05-05T13:41:50.105Z,42.99
2023-05-05T13:44:17.415Z,43.09
2023-05-05T13:46:44.787Z,43.17
2023-05-05T13:49:15.011Z,43.36
2023-05-05T13:51:43.692Z,43.47
2023-05-05T13:54:11.401Z,43.31
2023-05-05T13:56:38.648Z,43.17
2023-05-05T13:59:05.827Z,43.08
2023-05-05T14:01:33.102Z,42.76
2023-05-05T14:04:05.835Z,42.65
2023-05-05T14:06:36.491Z,42.48
2023-05-05T14:09:06.539Z,42.35
2023-05-05T14:11:33.827Z,42.05
2023-05-05T14:14:03.399Z,42.15
2023-05-05T14:16:30.732Z,41.97
2023-05-05T14:19:02.012Z,42.04
2023-05-05T14:21:35.507Z,41.97
2023-05-05T14:24:05.841Z,41.91
2023-05-05T14:26:34.081Z,41.85
2023-05-05T14:29:04.804Z,41.75
2023-05-05T14:31:34.421Z,41.33
2023-05-05T14:34:05.697Z,41.30
2023-05-05T14:36:46.860Z,40.96
2023-05-05T14:39:14.152Z,40.83
2023-05-05T14:41:41.253Z,40.74
2023-05-05T14:44:08.538Z,40.57
2023-05-05T14:46:38.584Z,40.39
2023-05-05T14:49:06.111Z,40.15
2023-05-05T14:51:33.621Z,39.98
2023-05-05T14:54:03.857Z,40.08
2023-05-05T14:56:33.081Z,39.78
2023-05-05T14:59:00.283Z,39.79
2023-05-05T15:01:27.432Z,39.89
2023-05-05T15:03:55.458Z,39.65
2023-05-05T15:06:22.834Z,39.79
2023-05-05T15:08:49.849Z,39.64
2023-05-05T15:11:16.891Z,39.55
2023-05-05T15:13:43.933Z,39.68
2023-05-05T15:16:11.083Z,39.53
2023-05-05T15:18:38.688Z,39.42
2023-05-05T15:21:05.999Z,39.50
2023-05-05T15:23:33.057Z,39.37
2023-05-05T15:26:00.185Z,39.19
2023-05-05T15:28:27.477Z,39.08
2023-05-05T15:30:54.553Z,39.10
2023-05-05T15:33:21.667Z,39.02
2023-05-05T15:35:49.346Z,39.06
2023-05-05T15:38:16.497Z,38.99
2023-05-05T15:40:48.271Z,39.08
2023-05-05T15:43:16.719Z,39.05
2023-05-05T15:45:43.917Z,39.02
2023-05-05T15:48:10.973Z,38.96
2023-05-05T15:50:38.160Z,38.99
2023-05-05T15:53:05.230Z,38.88
2023-05-05T15:55:32.600Z,38.83
2023-05-05T15:57:59.646Z,38.87
2023-05-05T16:00:27.018Z,38.93
2023-05-05T16:02:54.205Z,38.93
2023-05-05T16:05:23.003Z,38.93
2023-05-05T16:07:50.475Z,38.80
2023-05-05T16:10:19.442Z,38.86
2023-05-05T16:12:46.855Z,38.76
2023-05-05T16:15:14.337Z,38.77
2023-05-05T16:17:41.600Z,38.79
2023-05-05T16:20:09.411Z,38.58
2023-05-05T16:22:37.198Z,38.62
2023-05-05T16:25:04.524Z,38.69
2023-05-05T16:27:32.972Z,38.76
2023-05-05T16:30:10.152Z,38.54
2023-05-05T16:32:37.439Z,38.55
2023-05-05T16:35:04.950Z,38.65
2023-05-05T16:37:32.203Z,38.39
2023-05-05T16:40:01.621Z,38.28
2023-05-05T16:42:31.410Z,38.44
2023-05-05T16:44:58.515Z,38.32
2023-05-05T16:47:25.880Z,38.39
2023-05-05T16:49:52.934Z,38.15
2023-05-05T16:52:20.079Z,38.06
2023-05-05T16:54:48.352Z,38.16
2023-05-05T16:57:15.344Z,37.98
2023-05-05T16:59:42.424Z,37.98
2023-05-05T17:02:09.684Z,37.96
2023-05-05T17:04:36.849Z,37.79
2023-05-05T17:07:03.877Z,37.79
2023-05-05T17:09:30.988Z,37.81
2023-05-05T17:11:58.054Z,37.95
2023-05-05T17:14:25.185Z,37.88
2023-05-05T17:16:53.340Z,37.65
2023-05-05T17:19:20.382Z,37.61
2023-05-05T17:21:47.581Z,37.77
2023-05-05T17:24:14.686Z,37.60
2023-05-05T17:26:41.894Z,37.51
2023-05-05T17:29:10.028Z,37.69
2023-05-05T17:31:38.799Z,37.57
2023-05-05T17:34:06.044Z,37.59
2023-05-05T17:36:33.848Z,37.54
2023-05-05T17:39:00.962Z,37.53
2023-05-05T17:41:28.034Z,37.53
2023-05-05T17:43:55.114Z,37.41
2023-05-05T17:46:22.294Z,37.39
2023-05-05T17:48:49.556Z,37.48
2023-05-05T17:51:16.615Z,37.47
2023-05-05T17:53:43.805Z,37.41
2023-05-05T17:56:10.936Z,37.37
2023-05-05T17:58:38.685Z,37.28
2023-05-05T18:01:06.569Z,37.30
2023-05-05T18:03:33.889Z,37.43
2023-05-05T18:06:02.547Z,37.27
2023-05-05T18:08:29.690Z,37.24
2023-05-05T18:10:57.359Z,37.34
2023-05-05T18:13:24.498Z,37.28
2023-05-05T18:15:51.631Z,37.19
2023-05-05T18:18:18.711Z,37.22
2023-05-05T18:20:45.812Z,37.14
2023-05-05T18:23:13.192Z,37.11
2023-05-05T18:25:40.226Z,37.10
2023-05-05T18:28:08.270Z,37.16
2023-05-05T18:30:36.406Z,37.02
2023-05-05T18:33:06.850Z,37.03
2023-05-05T18:35:34.075Z,36.80
2023-05-05T18:38:01.305Z,36.73
2023-05-05T18:40:28.397Z,36.69
2023-05-05T18:42:56.025Z,36.73
2023-05-05T18:45:23.351Z,36.65
2023-05-05T18:47:50.525Z,36.62
2023-05-05T18:50:17.955Z,36.75
2023-05-05T18:52:45.100Z,36.53
2023-05-05T18:55:12.194Z,36.68
2023-05-05T18:57:39.276Z,36.50
2023-05-05T19:00:07.140Z,36.59
2023-05-05T19:02:34.185Z,36.49
2023-05-05T19:05:01.469Z,36.33
2023-05-05T19:07:35.291Z,36.32
2023-05-05T19:10:04.604Z,36.36
2023-05-05T19:12:31.887Z,36.21
2023-05-05T19:14:59.064Z,36.29
2023-05-05T19:17:26.366Z,36.29
2023-05-05T19:19:53.685Z,36.28
2023-05-05T19:22:23.315Z,36.27
2023-05-05T19:24:50.356Z,36.21
2023-05-05T19:27:17.493Z,36.22
2023-05-05T19:29:44.640Z,36.09
2023-05-05T19:32:11.758Z,36.03
2023-05-05T19:34:41.049Z,36.15
2023-05-05T19:37:08.648Z,35.92
2023-05-05T19:39:38.083Z,35.86
2023-05-05T19:42:07.799Z,36.07
2023-05-05T19:44:34.904Z,35.94
2023-05-05T19:47:05.848Z,35.92
2023-05-05T19:49:33.219Z,35.93
2023-05-05T19:52:02.028Z,35.80
2023-05-05T19:54:30.263Z,35.88
2023-05-05T19:56:58.550Z,35.73
2023-05-05T19:59:26.067Z,35.83
2023-05-05T20:01:53.310Z,35.78
2023-05-05T20:04:20.821Z,35.77
2023-05-05T20:06:48.201Z,35.73
2023-05-05T20:09:15.612Z,35.51
2023-05-05T20:11:51.962Z,35.50
2023-05-05T20:14:24.618Z,35.41
2023-05-05T20:17:01.360Z,35.58
2023-05-05T20:20:30.642Z,35.54
2023-05-05T20:22:57.829Z,35.29
2023-05-05T20:25:30.024Z,35.35
2023-05-05T20:27:57.442Z,35.45
2023-05-05T20:30:24.755Z,35.39
2023-05-05T20:32:51.823Z,35.27
2023-05-05T20:35:18.888Z,35.27
2023-05-05T20:37:46.110Z,35.15
2023-05-05T20:40:13.819Z,35.18
2023-05-05T20:42:40.827Z,35.18
